createdAt,value
2024-04-24T00:00:41.442Z,7.36
2024-04-24T00:03:10.100Z,7.41
2024-04-24T00:05:37.123Z,7.52
2024-04-24T00:08:03.782Z,7.53
2024-04-24T00:10:30.403Z,7.39
2024-04-24T00:12:56.924Z,7.42
2024-04-24T00:15:23.439Z,7.65
2024-04-24T00:17:50.078Z,7.56
2024-04-24T00:20:16.735Z,7.53
2024-04-24T00:22:43.296Z,7.68
2024-04-24T00:25:09.842Z,7.60
2024-04-24T00:27:36.365Z,7.60
2024-04-24T00:30:02.905Z,7.67
2024-04-24T00:32:29.556Z,7.48
2024-04-24T00:34:56.140Z,7.57
2024-04-24T00:37:22.710Z,7.47
2024-04-24T00:39:49.251Z,7.49
2024-04-24T00:42:15.777Z,7.56
2024-04-24T00:44:42.298Z,7.62
2024-04-24T00:47:08.894Z,7.63
2024-04-24T00:49:35.458Z,7.73
2024-04-24T00:52:01.998Z,7.66
2024-04-24T00:54:28.549Z,7.42
2024-04-24T00:56:55.078Z,7.44
2024-04-24T00:59:21.635Z,7.47
2024-04-24T01:01:48.234Z,7.30
2024-04-24T01:04:14.975Z,7.09
2024-04-24T01:06:41.583Z,7.17
2024-04-24T01:09:08.127Z,7.29
2024-04-24T01:11:34.718Z,7.32
2024-04-24T01:14:01.305Z,7.27
2024-04-24T01:16:27.903Z,7.27
2024-04-24T01:18:54.558Z,7.28
2024-04-24T01:21:21.125Z,7.28
2024-04-24T01:23:47.654Z,7.30
2024-04-24T01:26:14.368Z,7.31
2024-04-24T01:28:40.897Z,7.19
2024-04-24T01:31:07.421Z,7.13
2024-04-24T01:33:34.021Z,7.22
2024-04-24T01:36:00.564Z,7.18
2024-04-24T01:38:27.115Z,6.85
2024-04-24T01:40:53.710Z,6.98
2024-04-24T01:43:20.283Z,6.85
2024-04-24T01:45:46.803Z,6.66
2024-04-24T01:48:13.416Z,6.88
2024-04-24T01:50:39.995Z,6.84
2024-04-24T01:53:06.620Z,6.56
2024-04-24T01:55:33.166Z,6.49
2024-04-24T01:57:59.718Z,6.57
2024-04-24T02:00:26.261Z,6.47
2024-04-24T02:02:52.844Z,6.43
2024-04-24T02:05:19.547Z,6.46
2024-04-24T02:07:46.203Z,6.28
2024-04-24T02:10:12.768Z,6.33
2024-04-24T02:12:39.362Z,6.41
2024-04-24T02:15:05.909Z,6.54
2024-04-24T02:17:32.496Z,6.70
2024-04-24T02:19:59.101Z,6.72
2024-04-24T02:22:25.645Z,6.46
2024-04-24T02:24:52.185Z,6.57
2024-04-24T02:27:18.714Z,6.38
2024-04-24T02:29:51.836Z,6.32
2024-04-24T02:32:22.955Z,6.60
2024-04-24T02:34:49.608Z,6.55
2024-04-24T02:37:16.158Z,6.27
2024-04-24T02:39:42.697Z,6.40
2024-04-24T02:42:09.259Z,6.41
2024-04-24T02:44:35.811Z,6.26
2024-04-24T02:47:02.357Z,6.17
2024-04-24T02:49:28.903Z,6.34
2024-04-24T02:51:55.454Z,6.48
2024-04-24T02:54:21.995Z,6.44
2024-04-24T02:56:51.382Z,6.47
2024-04-24T02:59:19.427Z,6.35
2024-04-24T03:01:46.112Z,6.40
2024-04-24T03:04:12.725Z,6.73
2024-04-24T03:06:39.252Z,6.41
2024-04-24T03:09:05.811Z,6.40
2024-04-24T03:11:32.434Z,6.47
2024-04-24T03:13:59.079Z,6.26
2024-04-24T03:16:25.620Z,6.55
2024-04-24T03:18:52.187Z,6.70
2024-04-24T03:21:18.747Z,6.78
2024-04-24T03:23:45.277Z,6.67
2024-04-24T03:26:11.881Z,6.86
2024-04-24T03:28:38.466Z,6.95
2024-04-24T03:31:04.981Z,6.99
2024-04-24T03:33:31.610Z,7.02
2024-04-24T03:35:58.157Z,6.95
2024-04-24T03:38:24.692Z,6.71
2024-04-24T03:40:51.266Z,6.87
2024-04-24T03:43:17.850Z,6.85
2024-04-24T03:45:44.368Z,6.85
2024-04-24T03:48:11.000Z,6.94
2024-04-24T03:50:37.572Z,6.85
2024-04-24T03:53:04.168Z,6.76
2024-04-24T03:55:30.731Z,6.97
2024-04-24T03:57:57.268Z,7.10
2024-04-24T04:00:23.796Z,7.09
2024-04-24T04:02:50.458Z,7.12
2024-04-24T04:05:17.129Z,6.79
2024-04-24T04:07:43.653Z,6.86
2024-04-24T04:10:10.181Z,7.01
2024-04-24T04:12:36.696Z,7.09
2024-04-24T04:15:03.234Z,7.20
2024-04-24T04:17:29.872Z,7.17
2024-04-24T04:19:56.499Z,7.15
2024-04-24T04:22:23.062Z,7.25
2024-04-24T04:24:49.629Z,7.24
2024-04-24T04:27:16.146Z,7.16
2024-04-24T04:29:42.709Z,6.58
2024-04-24T04:32:09.272Z,6.37
2024-04-24T04:34:35.841Z,6.33
2024-04-24T04:37:02.363Z,6.36
2024-04-24T04:39:28.917Z,6.46
2024-04-24T04:41:55.447Z,6.70
2024-04-24T04:44:22.032Z,7.02
2024-04-24T04:46:48.629Z,6.93
2024-04-24T04:49:15.204Z,6.36
2024-04-24T04:51:41.739Z,6.35
2024-04-24T04:54:08.273Z,6.19
2024-04-24T04:56:34.818Z,6.51
2024-04-24T04:59:01.362Z,6.61
2024-04-24T05:01:27.886Z,6.54
2024-04-24T05:03:54.453Z,6.79
2024-04-24T05:06:21.007Z,7.10
2024-04-24T05:08:49.535Z,7.23
2024-04-24T05:11:17.390Z,7.48
2024-04-24T05:13:43.982Z,7.54
2024-04-24T05:16:10.528Z,7.61
2024-04-24T05:18:37.146Z,7.78
2024-04-24T05:21:03.741Z,7.92
2024-04-24T05:23:30.352Z,7.74
2024-04-24T05:25:57.128Z,7.85
2024-04-24T05:28:23.751Z,7.94
2024-04-24T05:30:50.283Z,7.98
2024-04-24T05:33:16.913Z,7.73
2024-04-24T05:35:43.611Z,7.90
2024-04-24T05:38:10.164Z,8.01
2024-04-24T05:40:36.720Z,8.13
2024-04-24T05:43:03.235Z,8.19
2024-04-24T05:45:29.752Z,8.38
2024-04-24T05:47:56.364Z,8.13
2024-04-24T05:50:23.043Z,8.07
2024-04-24T05:52:49.670Z,8.16
2024-04-24T05:55:16.233Z,8.21
2024-04-24T05:57:42.760Z,8.33
2024-04-24T06:00:09.316Z,8.21
2024-04-24T06:02:35.930Z,8.27
2024-04-24T06:05:02.667Z,8.38
2024-04-24T06:07:29.312Z,8.43
2024-04-24T06:09:55.828Z,8.24
2024-04-24T06:12:22.390Z,8.13
2024-04-24T07:06:48.199Z,9.12
2024-04-24T07:09:14.874Z,9.38
2024-04-24T07:11:41.535Z,9.48
2024-04-24T07:14:08.127Z,9.25
2024-04-24T07:16:34.693Z,9.41
2024-04-24T07:19:01.340Z,9.76
2024-04-24T07:21:27.898Z,9.96
2024-04-24T07:23:54.415Z,10.18
2024-04-24T07:26:20.968Z,9.85
2024-04-24T07:28:47.494Z,8.62
2024-04-24T07:31:14.029Z,8.63
2024-04-24T07:33:40.578Z,8.89
2024-04-24T07:36:08.499Z,8.99
2024-04-24T07:38:35.416Z,8.92
2024-04-24T07:41:02.121Z,8.65
2024-04-24T07:43:28.702Z,8.73
2024-04-24T07:45:55.246Z,8.46
2024-04-24T07:48:22.001Z,8.83
2024-04-24T07:50:48.632Z,8.59
2024-04-24T07:53:15.215Z,8.68
2024-04-24T07:55:41.769Z,8.93
2024-04-24T07:58:08.318Z,8.17
2024-04-24T08:00:34.900Z,8.65
2024-04-24T08:03:01.518Z,8.98
2024-04-24T08:05:28.145Z,9.04
2024-04-24T08:07:55.004Z,9.46
2024-04-24T08:10:21.613Z,9.70
2024-04-24T08:12:48.149Z,9.62
2024-04-24T08:15:14.702Z,9.70
2024-04-24T08:17:41.312Z,9.98
2024-04-24T08:20:07.937Z,10.25
2024-04-24T08:22:34.487Z,8.54
2024-04-24T08:25:01.038Z,7.44
2024-04-24T08:27:27.559Z,7.69
2024-04-24T08:29:54.105Z,7.99
2024-04-24T08:32:20.696Z,8.83
2024-04-24T08:34:47.268Z,8.98
2024-04-24T08:37:13.792Z,9.31
2024-04-24T08:39:40.307Z,8.79
2024-04-24T08:42:06.820Z,8.97
2024-04-24T08:44:33.441Z,8.91
2024-04-24T08:46:59.995Z,9.03
2024-04-24T08:49:26.558Z,8.89
2024-04-24T08:51:53.100Z,8.77
2024-04-24T08:54:19.650Z,7.91
2024-04-24T08:56:46.201Z,7.96
2024-04-24T08:59:12.772Z,8.25
2024-04-24T09:01:39.297Z,7.97
2024-04-24T09:04:05.954Z,7.82
2024-04-24T09:06:33.260Z,7.60
2024-04-24T09:08:59.785Z,8.26
2024-04-24T09:11:26.420Z,8.42
2024-04-24T09:13:53.040Z,7.88
2024-04-24T09:16:19.602Z,7.94
2024-04-24T09:18:46.270Z,7.37
2024-04-24T09:21:12.822Z,7.38
2024-04-24T09:23:39.358Z,7.89
2024-04-24T09:26:05.919Z,8.15
2024-04-24T09:28:32.486Z,7.98
2024-04-24T09:31:00.112Z,8.34
2024-04-24T09:33:26.736Z,8.61
2024-04-24T09:35:53.398Z,8.42
2024-04-24T09:38:19.984Z,7.88
2024-04-24T09:40:46.519Z,7.97
2024-04-24T09:43:13.043Z,8.27
2024-04-24T09:45:39.591Z,8.01
2024-04-24T09:48:06.393Z,8.11
2024-04-24T09:50:33.163Z,8.47
2024-04-24T09:52:59.742Z,8.74
2024-04-24T09:55:26.289Z,8.49
2024-04-24T09:57:52.828Z,8.95
2024-04-24T10:00:19.418Z,8.76
2024-04-24T10:02:46.090Z,9.50
2024-04-24T10:05:12.763Z,9.43
2024-04-24T10:07:39.331Z,10.01
2024-04-24T10:10:05.882Z,9.26
2024-04-24T10:12:32.402Z,9.15
2024-04-24T10:14:58.921Z,8.79
2024-04-24T10:17:25.520Z,9.01
2024-04-24T10:19:52.122Z,9.20
2024-04-24T10:22:18.693Z,9.12
2024-04-24T10:24:45.408Z,9.26
2024-04-24T10:27:11.964Z,8.91
2024-04-24T10:29:38.504Z,9.04
2024-04-24T10:32:05.076Z,8.98
2024-04-24T10:34:31.639Z,9.35
2024-04-24T10:36:58.163Z,9.37
2024-04-24T10:39:24.711Z,9.58
2024-04-24T10:41:51.226Z,9.48
2024-04-24T10:44:17.791Z,8.99
2024-04-24T10:46:44.348Z,8.75
2024-04-24T10:49:10.915Z,9.04
2024-04-24T10:51:37.447Z,10.02
2024-04-24T10:54:04.267Z,9.24
2024-04-24T10:56:32.062Z,9.29
2024-04-24T10:58:59.578Z,8.98
2024-04-24T11:01:39.080Z,8.84
2024-04-24T11:04:12.728Z,9.38
2024-04-24T11:06:39.288Z,9.25
2024-04-24T11:09:05.824Z,8.66
2024-04-24T11:11:32.460Z,8.86
2024-04-24T11:13:59.063Z,9.28
2024-04-24T11:16:25.668Z,9.69
2024-04-24T11:18:52.258Z,9.97
2024-04-24T11:21:18.908Z,10.13
2024-04-24T11:23:45.484Z,9.98
2024-04-24T11:26:12.078Z,9.93
2024-04-24T11:28:38.626Z,9.75
2024-04-24T11:31:07.825Z,9.05
2024-04-24T11:33:36.173Z,9.10
2024-04-24T11:36:02.844Z,8.81
2024-04-24T11:38:29.379Z,8.68
2024-04-24T11:40:56.018Z,9.16
2024-04-24T11:43:22.560Z,8.96
2024-04-24T11:45:49.119Z,8.46
2024-04-24T11:48:15.746Z,9.02
2024-04-24T11:50:42.413Z,9.07
2024-04-24T11:53:08.993Z,9.52
2024-04-24T11:55:35.551Z,10.14
2024-04-24T11:58:02.109Z,9.82
2024-04-24T12:00:28.669Z,10.01
2024-04-24T12:02:55.224Z,10.25
2024-04-24T12:05:21.868Z,10.03
2024-04-24T12:07:48.443Z,9.82
2024-04-24T12:10:15.021Z,9.88
2024-04-24T12:12:41.587Z,9.98
2024-04-24T12:15:08.140Z,10.06
2024-04-24T12:17:34.806Z,10.59
2024-04-24T12:20:02.825Z,9.96
2024-04-24T12:22:30.473Z,9.87
2024-04-24T12:24:57.033Z,10.47
2024-04-24T12:27:23.643Z,10.55
2024-04-24T12:29:50.181Z,10.43
2024-04-24T12:32:16.914Z,10.40
2024-04-24T12:34:43.635Z,9.81
2024-04-24T12:37:10.195Z,10.20
2024-04-24T12:39:36.779Z,9.65
2024-04-24T12:42:03.315Z,9.61
2024-04-24T12:44:29.904Z,9.77
2024-04-24T12:46:56.530Z,10.01
2024-04-24T12:49:23.129Z,10.27
2024-04-24T12:51:49.660Z,10.21
2024-04-24T12:54:16.240Z,10.63
2024-04-24T12:56:42.830Z,8.99
2024-04-24T12:59:09.389Z,9.94
2024-04-24T13:01:35.956Z,9.54
2024-04-24T13:04:02.529Z,9.39
2024-04-24T13:06:29.148Z,9.07
2024-04-24T13:08:55.695Z,8.78
2024-04-24T13:11:22.300Z,8.24
2024-04-24T13:13:48.841Z,9.05
2024-04-24T13:16:15.355Z,9.29
2024-04-24T13:18:42.031Z,9.68
2024-04-24T13:21:08.668Z,9.73
2024-04-24T13:23:35.253Z,9.62
2024-04-24T13:26:01.846Z,8.92
2024-04-24T13:28:28.417Z,9.11
2024-04-24T13:30:54.960Z,9.23
2024-04-24T13:33:21.629Z,8.73
2024-04-24T13:35:48.317Z,8.47
2024-04-24T13:38:14.844Z,8.60
2024-04-24T13:40:41.413Z,8.51
2024-04-24T13:43:07.951Z,9.06
2024-04-24T13:45:34.511Z,8.55
2024-04-24T13:48:01.253Z,9.12
2024-04-24T13:50:27.874Z,8.87
2024-04-24T13:52:54.469Z,8.95
2024-04-24T13:55:20.984Z,8.74
2024-04-24T13:57:47.531Z,8.73
2024-04-24T14:00:14.072Z,8.50
2024-04-24T14:02:40.721Z,8.39
2024-04-24T14:05:07.420Z,8.98
2024-04-24T14:07:33.967Z,9.09
2024-04-24T14:10:00.495Z,9.23
2024-04-24T14:12:27.017Z,8.74
2024-04-24T14:14:53.534Z,8.93
2024-04-24T14:17:20.110Z,8.93
2024-04-24T14:19:46.683Z,8.83
2024-04-24T14:22:13.214Z,9.17
2024-04-24T14:24:39.721Z,9.59
2024-04-24T14:27:06.298Z,9.89
2024-04-24T14:29:32.850Z,9.92
2024-04-24T14:31:59.481Z,9.52
2024-04-24T14:34:26.026Z,9.38
2024-04-24T14:36:53.789Z,8.98
2024-04-24T14:39:21.191Z,9.36
2024-04-24T14:41:47.729Z,9.03
2024-04-24T14:44:14.291Z,9.13
2024-04-24T14:46:40.832Z,9.68
2024-04-24T14:49:07.443Z,10.26
2024-04-24T14:51:34.010Z,10.68
2024-04-24T14:54:00.544Z,10.59
2024-04-24T14:56:27.209Z,9.65
2024-04-24T14:58:53.807Z,9.88
2024-04-24T15:01:20.375Z,8.80
2024-04-24T15:03:46.931Z,8.96
2024-04-24T15:06:13.447Z,8.24
2024-04-24T15:08:39.975Z,8.22
2024-04-24T15:11:06.620Z,8.22
2024-04-24T15:13:33.227Z,8.30
2024-04-24T15:15:59.757Z,8.09
2024-04-24T15:18:26.426Z,7.87
2024-04-24T15:20:53.071Z,7.92
2024-04-24T15:23:19.617Z,8.33
2024-04-24T15:25:46.278Z,8.59
2024-04-24T15:28:12.824Z,8.48
2024-04-24T15:30:39.359Z,8.43
2024-04-24T15:33:06.106Z,8.77
2024-04-24T15:35:32.802Z,8.92
2024-04-24T15:37:59.497Z,9.36
2024-04-24T15:40:26.055Z,9.49
2024-04-24T15:42:52.577Z,9.78
2024-04-24T15:45:19.091Z,9.37
2024-04-24T15:47:45.810Z,9.88
2024-04-24T15:50:12.495Z,10.22
2024-04-24T15:52:39.067Z,10.24
2024-04-24T15:55:05.624Z,10.23
2024-04-24T15:57:32.221Z,10.47
2024-04-24T15:59:58.737Z,10.52
2024-04-24T16:02:25.351Z,10.45
2024-04-24T16:04:51.995Z,10.46
2024-04-24T16:07:18.550Z,10.62
2024-04-24T16:09:45.056Z,10.69
2024-04-24T16:12:11.583Z,10.83
2024-04-24T16:14:38.255Z,11.02
2024-04-24T16:17:05.012Z,11.17
2024-04-24T16:19:31.667Z,11.30
2024-04-24T16:21:58.231Z,11.39
2024-04-24T16:24:24.787Z,11.40
2024-04-24T16:26:51.344Z,11.53
2024-04-24T16:29:17.976Z,11.58
2024-04-24T16:31:44.512Z,11.57
2024-04-24T16:34:11.055Z,11.59
2024-04-24T16:36:37.585Z,11.71
2024-04-24T16:39:04.159Z,11.64
2024-04-24T16:41:30.724Z,11.47
2024-04-24T16:43:57.297Z,11.52
2024-04-24T16:46:23.819Z,11.67
2024-04-24T16:48:50.410Z,11.73
2024-04-24T16:51:16.944Z,11.44
2024-04-24T16:53:43.471Z,11.31
2024-04-24T16:56:10.038Z,11.31
2024-04-24T16:58:37.672Z,11.16
2024-04-24T17:01:04.236Z,11.27
2024-04-24T17:03:30.843Z,11.27
2024-04-24T17:05:57.356Z,11.24
2024-04-24T17:08:23.929Z,11.31
2024-04-24T17:10:50.537Z,11.38
2024-04-24T17:13:17.087Z,11.38
2024-04-24T17:15:43.646Z,11.45
2024-04-24T17:18:10.254Z,11.38
2024-04-24T17:20:36.964Z,11.22
2024-04-24T17:23:03.571Z,11.36
2024-04-24T17:25:30.124Z,11.25
2024-04-24T17:27:56.659Z,11.18
2024-04-24T17:30:23.222Z,11.27
2024-04-24T17:32:49.871Z,10.91
2024-04-24T17:35:16.622Z,11.03
2024-04-24T17:37:43.256Z,10.90
2024-04-24T17:40:09.765Z,10.37
2024-04-24T17:42:36.345Z,10.51
2024-04-24T17:45:02.956Z,10.37
2024-04-24T17:47:29.604Z,10.16
2024-04-24T17:49:56.235Z,10.15
2024-04-24T17:52:22.783Z,9.72
2024-04-24T17:54:49.349Z,9.93
2024-04-24T17:57:15.894Z,9.90
2024-04-24T17:59:42.452Z,10.02
2024-04-24T18:02:09.007Z,10.00
2024-04-24T18:04:35.573Z,9.96
2024-04-24T18:07:02.145Z,9.86
2024-04-24T18:09:28.696Z,9.85
2024-04-24T18:11:55.333Z,9.83
2024-04-24T18:14:21.984Z,9.92
2024-04-24T18:16:48.549Z,9.89
2024-04-24T18:19:15.102Z,9.91
2024-04-24T18:21:41.727Z,9.73
2024-04-24T18:24:08.279Z,9.65
2024-04-24T18:26:34.888Z,9.46
2024-04-24T18:29:01.537Z,9.58
2024-04-24T18:31:28.159Z,9.56
2024-04-24T18:33:54.708Z,9.50
2024-04-24T18:36:21.252Z,9.37
2024-04-24T18:38:47.866Z,9.48
2024-04-24T18:41:14.469Z,9.55
2024-04-24T18:43:41.105Z,9.52
2024-04-24T18:46:07.638Z,9.45
2024-04-24T18:48:34.260Z,9.53
2024-04-24T18:51:00.820Z,9.56
2024-04-24T18:53:27.362Z,9.52
2024-04-24T18:55:53.965Z,9.50
2024-04-24T18:58:20.481Z,9.56
2024-04-24T19:00:47.109Z,9.53
2024-04-24T19:03:13.706Z,9.55
2024-04-24T19:05:40.352Z,9.36
2024-04-24T19:08:06.976Z,9.39
2024-04-24T19:10:33.571Z,9.49
2024-04-24T19:13:00.177Z,9.52
2024-04-24T19:15:26.704Z,9.53
2024-04-24T19:17:53.278Z,9.26
2024-04-24T19:20:19.885Z,9.10
2024-04-24T19:22:46.485Z,9.04
2024-04-24T19:25:13.049Z,8.94
2024-04-24T19:27:41.690Z,9.06
2024-04-24T19:30:08.824Z,9.12
2024-04-24T19:32:35.502Z,9.21
2024-04-24T19:35:02.134Z,9.45
2024-04-24T19:37:28.707Z,9.37
2024-04-24T19:39:55.310Z,9.56
2024-04-24T19:42:21.846Z,9.66
2024-04-24T19:44:48.393Z,9.73
2024-04-24T19:47:15.042Z,9.58
2024-04-24T19:49:41.599Z,9.61
2024-04-24T19:52:08.160Z,9.58
2024-04-24T19:54:34.714Z,9.69
2024-04-24T19:57:01.277Z,9.57
2024-04-24T19:59:27.840Z,9.59
2024-04-24T20:01:54.423Z,9.54
2024-04-24T20:04:21.023Z,9.55
2024-04-24T20:06:47.561Z,9.29
2024-04-24T20:09:14.085Z,9.42
2024-04-24T20:11:40.783Z,9.48
2024-04-24T20:14:07.412Z,9.24
2024-04-24T20:16:34.002Z,9.25
2024-04-24T20:19:00.731Z,9.15
2024-04-24T20:21:27.320Z,9.37
2024-04-24T20:23:53.848Z,9.45
2024-04-24T20:26:20.392Z,9.41
2024-04-24T20:28:46.974Z,9.44
2024-04-24T20:31:13.539Z,9.43
2024-04-24T20:33:47.695Z,9.41
2024-04-24T20:36:17.536Z,9.44
2024-04-24T20:38:44.125Z,9.37
2024-04-24T20:41:10.713Z,9.18
2024-04-24T20:43:37.294Z,9.05
2024-04-24T20:46:03.834Z,8.92
2024-04-24T20:48:30.470Z,8.84
2024-04-24T20:50:57.084Z,8.89
2024-04-24T20:53:23.664Z,8.81
2024-04-24T20:55:51.517Z,8.79
2024-04-24T20:58:18.080Z,8.75
2024-04-24T21:00:46.951Z,8.75
2024-04-24T21:03:13.710Z,8.64
2024-04-24T21:05:40.366Z,8.52
2024-04-24T21:08:06.945Z,8.54
2024-04-24T21:10:33.499Z,8.66
2024-04-24T21:13:00.063Z,8.72
2024-04-24T21:15:26.628Z,8.86
2024-04-24T21:17:53.279Z,8.73
2024-04-24T21:20:20.055Z,8.21
2024-04-24T21:22:46.666Z,7.87
2024-04-24T21:25:13.252Z,7.09
2024-04-24T21:27:39.792Z,6.94
2024-04-24T21:30:06.350Z,7.54
2024-04-24T21:32:33.075Z,7.55
2024-04-24T21:34:59.690Z,7.86
2024-04-24T21:37:26.225Z,8.02
2024-04-24T21:40:00.265Z,8.00
2024-04-24T21:42:26.846Z,8.10
2024-04-24T21:44:53.440Z,8.30
2024-04-24T21:47:20.045Z,8.38
2024-04-24T21:49:46.610Z,8.26
2024-04-24T21:52:13.136Z,8.00
2024-04-24T21:54:39.694Z,7.64
2024-04-24T21:57:06.311Z,7.30
2024-04-24T21:59:34.878Z,7.44
2024-04-24T22:02:02.061Z,7.62
2024-04-24T22:04:28.616Z,7.88
2024-04-24T22:06:55.164Z,7.94
2024-04-24T22:09:21.706Z,8.01
2024-04-24T22:11:48.350Z,7.94
2024-04-24T22:14:14.924Z,8.07
2024-04-24T22:16:41.517Z,8.25
2024-04-24T22:19:08.308Z,8.21
2024-04-24T22:21:34.945Z,8.25
2024-04-24T22:24:01.483Z,8.01
2024-04-24T22:26:28.027Z,7.93
2024-04-24T22:28:54.649Z,8.00
2024-04-24T22:31:21.184Z,8.02
2024-04-24T22:33:47.734Z,8.14
2024-04-24T22:36:14.263Z,7.94
2024-04-24T22:38:40.803Z,8.09
2024-04-24T22:41:07.383Z,8.10
2024-04-24T22:43:33.932Z,8.08
2024-04-24T22:46:00.465Z,8.23
2024-04-24T22:48:27.048Z,8.32
2024-04-24T22:50:53.611Z,8.12
2024-04-24T22:53:20.171Z,8.16
2024-04-24T22:55:46.716Z,8.26
2024-04-24T22:58:13.264Z,8.47
2024-04-24T23:00:39.844Z,8.42
2024-04-24T23:03:06.463Z,8.39
2024-04-24T23:05:33.231Z,8.37
2024-04-24T23:07:59.879Z,8.23
2024-04-24T23:10:26.404Z,8.19
2024-04-24T23:12:52.920Z,8.21
2024-04-24T23:15:19.443Z,8.25
2024-04-24T23:17:46.049Z,8.27
2024-04-24T23:20:12.759Z,8.30
2024-04-24T23:22:39.331Z,8.22
2024-04-24T23:25:05.862Z,8.26
2024-04-24T23:27:32.398Z,8.22
2024-04-24T23:29:58.994Z,8.15
2024-04-24T23:32:25.544Z,7.86
2024-04-24T23:34:52.090Z,7.57
2024-04-24T23:37:18.637Z,7.56
2024-04-24T23:39:45.184Z,7.43
2024-04-24T23:42:11.725Z,7.24
2024-04-24T23:44:38.305Z,7.11
2024-04-24T23:47:05.015Z,7.27
2024-04-24T23:49:31.636Z,7.27
2024-04-24T23:51:58.180Z,7.39
2024-04-24T23:54:24.719Z,7.37
2024-04-24T23:56:51.247Z,7.47
2024-04-24T23:59:17.811Z,7.46
